Costa Mediterranea — IBCF — position and weather

sailwx.info

Track history (hours):
 
Tides and Currents Weather Stations Pressure Air Temp Water Temp Dewpoint Dewpoint Depression Visibility Wind Speed Wind Dir Waves Ship Positions

Costa Mediterranea

Last reported at 2018-Jul-22 01:20 UTC. Time now 2018-Jul-22 06:56 UTC.
Position N 53°28' E 004°43'.

Length 293 m; draft 8 m.

Type: Ship. MMSI: 247088200.

Date/timePositionNaut miles runAvg speedWind from/ knotsBaromVisibWave heightAir tempDewpointWater temp
2018-Jul-22 01:20N 53°28' E 004°43'619.2
2018-Jul-22 01:00N 53°22' E 004°39'1019.5
2018-Jul-22 00:30N 53°13' E 004°32'1019.7
2018-Jul-22 00:01N 53°05' E 004°24'1019.6
2018-Jul-21 23:30N 52°56' E 004°19'1019.4
2018-Jul-21 23:00N 52°47' E 004°12'1019.1
2018-Jul-21 22:30N 52°38' E 004°06'917.2
2018-Jul-21 22:00N 52°31' E 004°14'816.4
2018-Jul-21 21:31N 52°29' E 004°27'510.7
2018-Jul-21 21:00N 52°28' E 004°35'1 1.3
2018-Jul-21 20:30N 52°28' E 004°36'2 4.5
2018-Jul-21 20:00N 52°28' E 004°40'4 7.1
2018-Jul-21 19:31N 52°26' E 004°45'4 7.2
2018-Jul-21 19:01N 52°25' E 004°51'3 6.3
2018-Jul-21 18:30N 52°23' E 004°54'0 0.6
2018-Jul-21 18:00N 52°23' E 004°55'0 0.2
2018-Jul-21 17:29N 52°23' E 004°55'0 0.0
2018-Jul-21 16:59N 52°23' E 004°55'0 0.0
2018-Jul-21 16:29N 52°23' E 004°55'0 0.0
2018-Jul-21 15:59N 52°23' E 004°55'0 0.0
2018-Jul-21 15:29N 52°23' E 004°55'0 0.0
2018-Jul-21 14:59N 52°23' E 004°55'0 0.0
2018-Jul-21 14:29N 52°23' E 004°55'0 0.0
2018-Jul-21 13:59N 52°23' E 004°55'0 0.0
2018-Jul-21 13:29N 52°23' E 004°55'0 0.0
2018-Jul-21 12:59N 52°23' E 004°55'0 0.0
2018-Jul-21 12:29N 52°23' E 004°55'0 0.0
2018-Jul-21 11:59N 52°23' E 004°55'0 0.0
2018-Jul-21 11:29N 52°23' E 004°55'0 0.0
2018-Jul-21 10:59N 52°23' E 004°55'0 0.0
2018-Jul-21 10:29N 52°23' E 004°55'0 0.0
2018-Jul-21 09:59N 52°23' E 004°55'0 0.0
2018-Jul-21 09:29N 52°23' E 004°55'0 0.0
2018-Jul-21 08:59N 52°23' E 004°55'0 0.0
2018-Jul-21 08:29N 52°23' E 004°55'0 0.0
2018-Jul-21 07:59N 52°23' E 004°55'0 0.0
2018-Jul-21 07:29N 52°23' E 004°55'0 0.0
2018-Jul-21 06:59N 52°23' E 004°55'0 0.0
2018-Jul-21 06:29N 52°23' E 004°55'0 0.0
2018-Jul-21 05:59N 52°23' E 004°55'0 0.0
2018-Jul-21 05:29N 52°23' E 004°55'0 0.0
2018-Jul-21 04:59N 52°23' E 004°55'0 0.0
2018-Jul-21 04:30N 52°23' E 004°55'1 2.2
2018-Jul-21 04:00N 52°23' E 004°54'3 5.7
2018-Jul-21 03:30N 52°25' E 004°50'4 7.7
2018-Jul-21 03:00N 52°26' E 004°44'4 7.4
2018-Jul-21 02:30N 52°28' E 004°38'1 2.3
2018-Jul-21 02:00N 52°28' E 004°37'2 4.6
2018-Jul-21 01:30N 52°28' E 004°33'611.6
2018-Jul-21 01:00N 52°29' E 004°23'713.4
2018-Jul-21 00:30N 52°29' E 004°12'918.5
2018-Jul-21 00:00N 52°37' E 004°04'1019.4
2018-Jul-20 23:30N 52°46' E 003°59'918.8
2018-Jul-20 23:00N 52°55' E 003°59'918.9
2018-Jul-20 22:30N 53°03' E 004°09'919.0
2018-Jul-20 22:00N 53°09' E 004°20'918.1
2018-Jul-20 21:30N 53°17' E 004°28'917.5
2018-Jul-20 21:00N 53°25' E 004°34'917.4
2018-Jul-20 20:30N 53°30' E 004°46'918.7
2018-Jul-20 20:00N 53°34' E 005°01'1020.1
2018-Jul-20 19:30N 53°38' E 005°16'1121.6
2018-Jul-20 19:00N 53°41' E 005°34'1121.5
2018-Jul-20 18:30N 53°44' E 005°51'1121.3
2018-Jul-20 18:00N 53°47' E 006°08'1121.0
2018-Jul-20 17:30N 53°50' E 006°25'1020.6
2018-Jul-20 17:00N 53°53' E 006°42'1020.2
2018-Jul-20 16:30N 53°55' E 006°59'1019.8
2018-Jul-20 15:59N 53°57' E 007°16'919.4
2018-Jul-20 15:30N 53°59' E 007°32'816.3
2018-Jul-20 15:00N 53°55' E 007°43'813.3
2018-Jul-20 14:26N 53°52' E 007°55'614.2
2018-Jul-20 14:00N 53°50' E 008°05'714.6
2018-Jul-20 13:30N 53°44' E 008°13'714.7
2018-Jul-20 13:00N 53°40' E 008°23'712.9
2018-Jul-20 12:30N 53°35' E 008°31'2 4.0
2018-Jul-20 11:58N 53°34' E 008°33'0 0.0
2018-Jul-20 11:30N 53°34' E 008°33'0 0.0
2018-Jul-20 11:00N 53°34' E 008°33'0 0.0
2018-Jul-20 10:30N 53°34' E 008°33'0 0.0
2018-Jul-20 10:00N 53°34' E 008°33'0 0.0
2018-Jul-20 09:30N 53°34' E 008°33'0 0.0
2018-Jul-20 09:00N 53°34' E 008°33'0 0.0
2018-Jul-20 08:28N 53°34' E 008°33'0 0.0
2018-Jul-20 07:58N 53°34' E 008°33'0 0.0
2018-Jul-20 07:28N 53°34' E 008°33'0 0.0
2018-Jul-20 06:58N 53°34' E 008°33'0 0.0
2018-Jul-20 06:28N 53°34' E 008°33'0 0.0
2018-Jul-20 05:58N 53°34' E 008°33'0 0.0
2018-Jul-20 05:29N 53°34' E 008°33'0 0.4
2018-Jul-20 05:01N 53°33' E 008°33'3 5.7
2018-Jul-20 04:30N 53°36' E 008°31'612.8
2018-Jul-20 04:01N 53°40' E 008°23'713.6
2018-Jul-20 03:30N 53°44' E 008°13'815.3
2018-Jul-20 03:00N 53°50' E 008°05'714.1
2018-Jul-20 02:30N 53°52' E 007°53'4 7.7
2018-Jul-20 01:59N 53°53' E 007°46'4 8.0
2018-Jul-20 01:30N 53°55' E 007°41'4 8.6
2018-Jul-20 01:00N 53°58' E 007°37'4 8.4
2018-Jul-20 00:30N 54°02' E 007°34'510.7
2018-Jul-20 00:01N 54°07' E 007°29'510.0
2018-Jul-19 23:30N 54°11' E 007°25'5 9.9
2018-Jul-19 22:58N 54°16' E 007°22'510.8
2018-Jul-19 22:29N 54°21' E 007°18'510.6
2018-Jul-19 21:59N 54°26' E 007°15'510.5
2018-Jul-19 21:30N 54°31' E 007°12'710.3
2018-Jul-19 20:50N 54°37' E 007°07'810.1
2018-Jul-19 20:04N 54°44' E 007°03'110.2
2018-Jul-19 19:59N 54°45' E 007°02'22910.2
2018-Jul-18 21:24N 58°26' E 005°10'410.7
2018-Jul-18 21:00N 58°30' E 005°12'510.6
2018-Jul-18 20:30N 58°35' E 005°15'510.5
2018-Jul-18 20:01N 58°40' E 005°17'510.4
2018-Jul-18 19:30N 58°45' E 005°19'5 9.6
2018-Jul-18 19:01N 58°50' E 005°22'510.2
2018-Jul-18 18:30N 58°52' E 005°31'510.6
2018-Jul-18 18:01N 58°57' E 005°33'611.3
2018-Jul-18 17:31N 59°03' E 005°34'510.6
2018-Jul-18 17:01N 58°60' E 005°42'1 2.6
2018-Jul-18 16:28N 58°59' E 005°44'0 0.0
2018-Jul-18 15:58N 58°59' E 005°44'0 0.0
2018-Jul-18 15:28N 58°59' E 005°44'0 0.0
2018-Jul-18 14:58N 58°59' E 005°44'0 0.0
2018-Jul-18 14:28N 58°59' E 005°44'0 0.0
2018-Jul-18 13:28N 58°59' E 005°44'0 0.0
2018-Jul-18 12:58N 58°59' E 005°44'0 0.0
2018-Jul-18 12:28N 58°59' E 005°44'0 0.0
2018-Jul-18 11:58N 58°59' E 005°44'0 0.0
2018-Jul-18 11:28N 58°59' E 005°44'0 0.0
2018-Jul-18 10:28N 58°59' E 005°44'0 0.0
2018-Jul-18 09:58N 58°59' E 005°44'0 0.0
2018-Jul-18 09:28N 58°59' E 005°44'0 0.0
2018-Jul-18 08:58N 58°59' E 005°44'0 0.0
2018-Jul-18 08:28N 58°59' E 005°44'0 0.0
2018-Jul-18 07:58N 58°59' E 005°44'0 0.0
2018-Jul-18 07:28N 58°59' E 005°44'0 0.0
2018-Jul-18 06:58N 58°59' E 005°44'0 0.0
2018-Jul-18 06:29N 58°59' E 005°44'1 1.9
2018-Jul-18 06:00N 58°59' E 005°43'611.7
2018-Jul-18 05:30N 59°03' E 005°34'714.2
2018-Jul-18 05:00N 59°06' E 005°22'918.2
2018-Jul-18 04:30N 59°06' E 005°04'8519.4
2018-Jul-18 00:09N 60°29' E 004°24'318.4
2018-Jul-18 00:00N 60°31' E 004°24'918.2
2018-Jul-17 23:30N 60°40' E 004°21'918.1
2018-Jul-17 23:00N 60°49' E 004°18'918.0
2018-Jul-17 22:30N 60°58' E 004°18'918.2
2018-Jul-17 22:00N 61°07' E 004°18'918.2
2018-Jul-17 21:30N 61°16' E 004°19'918.2
2018-Jul-17 21:00N 61°25' E 004°21'918.1
2018-Jul-17 20:30N 61°34' E 004°22'917.6
2018-Jul-17 20:00N 61°43' E 004°27'918.3
2018-Jul-17 19:30N 61°51' E 004°37'918.3
2018-Jul-17 19:00N 61°58' E 004°48'917.5
2018-Jul-17 18:30N 61°55' E 005°05'917.3
2018-Jul-17 18:00N 61°55' E 005°24'918.2
2018-Jul-17 17:30N 61°53' E 005°43'817.1
2018-Jul-17 17:01N 61°52' E 006°00'918.2
2018-Jul-17 16:29N 61°51' E 006°20'6 0.5
2018-Jul-17 04:29N 61°50' E 006°33'612.6
2018-Jul-17 04:00N 61°51' E 006°20'713.4
2018-Jul-17 03:30N 61°51' E 006°06'713.7
2018-Jul-17 02:59N 61°51' E 005°51'613.1
2018-Jul-17 02:30N 61°54' E 005°39'713.5
2018-Jul-17 02:00N 61°55' E 005°25'713.4
2018-Jul-17 01:30N 61°54' E 005°11'713.2
2018-Jul-17 01:00N 61°57' E 004°58'713.5
2018-Jul-17 00:29N 62°01' E 004°47'1212.7
2018-Jul-16 23:30N 62°13' E 004°51'714.1
2018-Jul-16 23:00N 62°19' E 004°59'714.3
2018-Jul-16 22:30N 62°25' E 005°08'713.4
2018-Jul-16 22:00N 62°29' E 005°19'714.0
2018-Jul-16 21:30N 62°30' E 005°34'713.6
2018-Jul-16 21:00N 62°29' E 005°49'613.0
2018-Jul-16 20:30N 62°27' E 006°02'4 8.5
2018-Jul-16 20:00N 62°30' E 006°09'611.4
2018-Jul-16 19:30N 62°36' E 006°08'3 6.0
2018-Jul-16 19:00N 62°38' E 006°13'713.6
2018-Jul-16 18:30N 62°38' E 006°27'714.3
2018-Jul-16 18:00N 62°39' E 006°42'714.0
2018-Jul-16 17:30N 62°42' E 006°57'713.0
2018-Jul-16 17:00N 62°39' E 007°10'6 0.4
2018-Jul-16 03:19N 62°37' E 007°21'514.0
2018-Jul-16 03:00N 62°39' E 007°12'714.0
2018-Jul-16 02:30N 62°42' E 006°59'713.4
2018-Jul-16 02:00N 62°49' E 006°58'612.6
2018-Jul-16 01:30N 62°54' E 006°51'713.9
2018-Jul-16 00:59N 62°59' E 006°39'612.3
2018-Jul-16 00:30N 62°59' E 006°26'713.7
2018-Jul-15 23:59N 62°55' E 006°13'713.7
2018-Jul-15 23:30N 62°51' E 006°02'713.7
2018-Jul-15 23:00N 62°46' E 005°51'713.3
2018-Jul-15 22:30N 62°41' E 005°42'713.5
2018-Jul-15 22:00N 62°34' E 005°42'612.5
2018-Jul-15 21:30N 62°29' E 005°50'611.5
2018-Jul-15 21:00N 62°26' E 006°01'613.1
2018-Jul-15 20:30N 62°23' E 006°14'917.9
2018-Jul-15 19:59N 62°26' E 006°33'817.4
2018-Jul-15 19:30N 62°27' E 006°51'714.1
2018-Jul-15 19:00N 62°20' E 006°57'713.6
2018-Jul-15 18:30N 62°14' E 007°02'713.2
2018-Jul-15 18:00N 62°07' E 006°57'510.1
2018-Jul-15 17:30N 62°07' E 007°07'2 4.8
2018-Jul-15 17:00N 62°06' E 007°12'0 0.0
2018-Jul-15 16:29N 62°06' E 007°12'0 0.0
2018-Jul-15 16:00N 62°06' E 007°12'0 0.0
2018-Jul-15 15:30N 62°06' E 007°12'0 0.0
2018-Jul-15 15:00N 62°06' E 007°12'0 0.0
2018-Jul-15 14:29N 62°06' E 007°12'0 0.0
2018-Jul-15 14:00N 62°06' E 007°12'0 0.0
2018-Jul-15 13:30N 62°06' E 007°12'0 0.0
2018-Jul-15 12:58N 62°06' E 007°12'0 0.0
2018-Jul-15 12:30N 62°06' E 007°12'0 0.0
2018-Jul-15 12:00N 62°06' E 007°12'0 0.0
2018-Jul-15 11:30N 62°06' E 007°12'0 0.0
2018-Jul-15 11:00N 62°06' E 007°12'0 0.0
2018-Jul-15 10:30N 62°06' E 007°12'0 0.0
2018-Jul-15 10:00N 62°06' E 007°12'0 0.0
2018-Jul-15 09:30N 62°06' E 007°12'0 0.0
2018-Jul-15 09:00N 62°06' E 007°12'0 0.0
2018-Jul-15 08:30N 62°06' E 007°12'2 4.3
2018-Jul-15 08:01N 62°07' E 007°08'6 2.0
2018-Jul-15 05:01N 62°07' E 006°55'012.0
2018-Jul-15 05:00N 62°07' E 006°56'713.3
2018-Jul-15 04:30N 62°13' E 007°01'713.2
2018-Jul-15 04:00N 62°19' E 006°58'713.3
2018-Jul-15 03:30N 62°26' E 006°54'713.6
2018-Jul-15 03:00N 62°27' E 006°40'714.0
2018-Jul-15 02:30N 62°25' E 006°26'714.0
2018-Jul-15 02:00N 62°23' E 006°11'612.9
2018-Jul-15 01:30N 62°27' E 005°59'510.2
2018-Jul-15 01:00N 62°29' E 005°49'612.9
2018-Jul-15 00:30N 62°30' E 005°36'612.9
2018-Jul-15 00:00N 62°31' E 005°22'713.1
2018-Jul-14 23:29N 62°26' E 005°11'815.6
2018-Jul-14 23:00N 62°20' E 005°01'917.9
2018-Jul-14 22:30N 62°13' E 004°51'918.2
2018-Jul-14 22:00N 62°04' E 004°43'918.2
2018-Jul-14 21:30N 61°56' E 004°35'918.5
2018-Jul-14 21:00N 61°47' E 004°28'918.5
2018-Jul-14 20:29N 61°38' E 004°22'918.7
2018-Jul-14 19:59N 61°29' E 004°21'918.7
2018-Jul-14 19:30N 61°20' E 004°20'918.6
2018-Jul-14 19:00N 61°11' E 004°19'918.6
2018-Jul-14 18:30N 61°01' E 004°19'1018.6
2018-Jul-14 17:59N 60°52' E 004°25'817.2
2018-Jul-14 17:30N 60°46' E 004°36'713.5
2018-Jul-14 17:01N 60°42' E 004°48'918.1
2018-Jul-14 16:30N 60°34' E 004°55'917.7
2018-Jul-14 16:00N 60°26' E 005°03'511.0
2018-Jul-14 15:30N 60°24' E 005°13'3 6.3
2018-Jul-14 15:00N 60°24' E 005°19'0 0.0
2018-Jul-14 14:30N 60°24' E 005°19'0 0.0
2018-Jul-14 13:30N 60°24' E 005°19'0 0.0
2018-Jul-14 13:00N 60°24' E 005°19'0 0.0
2018-Jul-14 12:30N 60°24' E 005°19'0 0.0
2018-Jul-14 11:59N 60°24' E 005°19'0 0.0
2018-Jul-14 11:29N 60°24' E 005°19'0 0.0
2018-Jul-14 10:59N 60°24' E 005°19'0 0.0
2018-Jul-14 10:29N 60°24' E 005°19'0 0.0
2018-Jul-14 09:59N 60°24' E 005°19'0 0.0
2018-Jul-14 09:29N 60°24' E 005°19'0 0.0
2018-Jul-14 08:59N 60°24' E 005°19'0 0.0
2018-Jul-14 08:26N 60°24' E 005°19'0 0.0
2018-Jul-14 07:59N 60°24' E 005°19'0 0.0
2018-Jul-14 07:28N 60°24' E 005°19'0 0.0
2018-Jul-14 06:58N 60°24' E 005°19'0 0.0
2018-Jul-14 06:28N 60°24' E 005°19'0 0.0
2018-Jul-14 05:58N 60°24' E 005°19'0 0.0
2018-Jul-14 05:30N 60°24' E 005°19'4 6.8
2018-Jul-14 04:59N 60°23' E 005°12'511.5
2018-Jul-14 04:30N 60°26' E 005°02'714.2
2018-Jul-14 04:00N 60°32' E 004°56'714.1
2018-Jul-14 03:30N 60°39' E 004°51'713.4
2018-Jul-14 03:00N 60°44' E 004°43'5 9.4
2018-Jul-14 02:30N 60°42' E 004°35'713.6
2018-Jul-14 02:00N 60°36' E 004°28'13514.7
2018-Jul-13 16:45N 58°20' E 004°27'817.7
2018-Jul-13 16:20N 58°13' E 004°30'27817.2
2018-Jul-13 00:07N 53°35' E 004°48'317.1
2018-Jul-12 23:57N 53°32' E 004°46'916.9
2018-Jul-12 23:25N 53°24' E 004°41'716.7
2018-Jul-12 23:00N 53°18' E 004°36'816.4
2018-Jul-12 22:30N 53°10' E 004°30'816.2
2018-Jul-12 22:00N 53°03' E 004°23'816.2
2018-Jul-12 21:30N 52°56' E 004°16'816.2
2018-Jul-12 21:00N 52°49' E 004°11'815.8
2018-Jul-12 20:30N 52°41' E 004°06'815.8
2018-Jul-12 20:00N 52°33' E 004°07'816.4
2018-Jul-12 19:30N 52°30' E 004°20'612.2
2018-Jul-12 19:00N 52°29' E 004°30'3 6.9
2018-Jul-12 18:30N 52°28' E 004°35'1 1.9
2018-Jul-12 18:00N 52°28' E 004°36'2 4.0
2018-Jul-12 17:30N 52°28' E 004°40'4 7.6
2018-Jul-12 17:00N 52°26' E 004°45'4 7.5
2018-Jul-12 16:30N 52°25' E 004°51'3 6.2
2018-Jul-12 16:00N 52°23' E 004°55'0 0.6
2018-Jul-12 15:30N 52°23' E 004°55'0 0.2
2018-Jul-12 14:58N 52°23' E 004°55'0 0.0
2018-Jul-12 14:28N 52°23' E 004°55'0 0.0
2018-Jul-12 13:58N 52°23' E 004°55'0 0.0
2018-Jul-12 13:28N 52°23' E 004°55'0 0.0
2018-Jul-12 12:58N 52°23' E 004°55'0 0.0
2018-Jul-12 12:28N 52°23' E 004°55'0 0.0
2018-Jul-12 11:58N 52°23' E 004°55'0 0.0
2018-Jul-12 11:28N 52°23' E 004°55'0 0.0
2018-Jul-12 10:58N 52°23' E 004°55'0 0.0
2018-Jul-12 10:28N 52°23' E 004°55'0 0.0
2018-Jul-12 09:58N 52°23' E 004°55'0 0.0
2018-Jul-12 09:30N 52°23' E 004°55'0 0.0
2018-Jul-12 09:00N 52°23' E 004°55'0 0.0
2018-Jul-12 08:30N 52°23' E 004°55'0 0.0
2018-Jul-12 08:00N 52°23' E 004°55'0 0.0
2018-Jul-12 07:30N 52°23' E 004°55'0 0.0
2018-Jul-12 07:00N 52°23' E 004°55'0 0.0
2018-Jul-12 06:28N 52°23' E 004°55'0 0.0
2018-Jul-12 06:00N 52°23' E 004°55'0 0.0
2018-Jul-12 05:30N 52°23' E 004°55'0 0.0
2018-Jul-12 04:58N 52°23' E 004°55'0 0.1
2018-Jul-12 04:31N 52°23' E 004°55'2 4.4
2018-Jul-12 04:00N 52°24' E 004°53'4 7.1
2018-Jul-12 03:31N 52°26' E 004°47'4 7.5
2018-Jul-12 03:01N 52°27' E 004°41'3 6.1
2018-Jul-12 02:30N 52°28' E 004°37'0 0.3
2018-Jul-12 02:00N 52°28' E 004°37'2 5.0
2018-Jul-12 01:31N 52°28' E 004°33'  
Track history (hours):
 
Tides and Currents Weather Stations Pressure Air Temp Water Temp Dewpoint Dewpoint Depression Visibility Wind Speed Wind Dir Waves Ship Positions

Costa Mediterranea

Last reported at 2018-Jul-22 01:20 UTC. Time now 2018-Jul-22 06:56 UTC.
Position N 53°28' E 004°43'.

Length 293 m; draft 8 m.

Type: Ship. MMSI: 247088200.

Date/timePositionNaut miles runAvg speedWind from/ knotsBaromVisibWave heightAir tempDewpointWater temp
2018-Jul-22 01:20N 53°28' E 004°43'619.2
2018-Jul-22 01:00N 53°22' E 004°39'1019.5
2018-Jul-22 00:30N 53°13' E 004°32'1019.7
2018-Jul-22 00:01N 53°05' E 004°24'1019.6
2018-Jul-21 23:30N 52°56' E 004°19'1019.4
2018-Jul-21 23:00N 52°47' E 004°12'1019.1
2018-Jul-21 22:30N 52°38' E 004°06'917.2
2018-Jul-21 22:00N 52°31' E 004°14'816.4
2018-Jul-21 21:31N 52°29' E 004°27'510.7
2018-Jul-21 21:00N 52°28' E 004°35'1 1.3
2018-Jul-21 20:30N 52°28' E 004°36'2 4.5
2018-Jul-21 20:00N 52°28' E 004°40'4 7.1
2018-Jul-21 19:31N 52°26' E 004°45'4 7.2
2018-Jul-21 19:01N 52°25' E 004°51'3 6.3
2018-Jul-21 18:30N 52°23' E 004°54'0 0.6
2018-Jul-21 18:00N 52°23' E 004°55'0 0.2
2018-Jul-21 17:29N 52°23' E 004°55'0 0.0
2018-Jul-21 16:59N 52°23' E 004°55'0 0.0
2018-Jul-21 16:29N 52°23' E 004°55'0 0.0
2018-Jul-21 15:59N 52°23' E 004°55'0 0.0
2018-Jul-21 15:29N 52°23' E 004°55'0 0.0
2018-Jul-21 14:59N 52°23' E 004°55'0 0.0
2018-Jul-21 14:29N 52°23' E 004°55'0 0.0
2018-Jul-21 13:59N 52°23' E 004°55'0 0.0
2018-Jul-21 13:29N 52°23' E 004°55'0 0.0
2018-Jul-21 12:59N 52°23' E 004°55'0 0.0
2018-Jul-21 12:29N 52°23' E 004°55'0 0.0
2018-Jul-21 11:59N 52°23' E 004°55'0 0.0
2018-Jul-21 11:29N 52°23' E 004°55'0 0.0
2018-Jul-21 10:59N 52°23' E 004°55'0 0.0
2018-Jul-21 10:29N 52°23' E 004°55'0 0.0
2018-Jul-21 09:59N 52°23' E 004°55'0 0.0
2018-Jul-21 09:29N 52°23' E 004°55'0 0.0
2018-Jul-21 08:59N 52°23' E 004°55'0 0.0
2018-Jul-21 08:29N 52°23' E 004°55'0 0.0
2018-Jul-21 07:59N 52°23' E 004°55'0 0.0
2018-Jul-21 07:29N 52°23' E 004°55'0 0.0
2018-Jul-21 06:59N 52°23' E 004°55'0 0.0
2018-Jul-21 06:29N 52°23' E 004°55'0 0.0
2018-Jul-21 05:59N 52°23' E 004°55'0 0.0
2018-Jul-21 05:29N 52°23' E 004°55'0 0.0
2018-Jul-21 04:59N 52°23' E 004°55'0 0.0
2018-Jul-21 04:30N 52°23' E 004°55'1 2.2
2018-Jul-21 04:00N 52°23' E 004°54'3 5.7
2018-Jul-21 03:30N 52°25' E 004°50'4 7.7
2018-Jul-21 03:00N 52°26' E 004°44'4 7.4
2018-Jul-21 02:30N 52°28' E 004°38'1 2.3
2018-Jul-21 02:00N 52°28' E 004°37'2 4.6
2018-Jul-21 01:30N 52°28' E 004°33'611.6
2018-Jul-21 01:00N 52°29' E 004°23'713.4
2018-Jul-21 00:30N 52°29' E 004°12'918.5
2018-Jul-21 00:00N 52°37' E 004°04'1019.4
2018-Jul-20 23:30N 52°46' E 003°59'918.8
2018-Jul-20 23:00N 52°55' E 003°59'918.9
2018-Jul-20 22:30N 53°03' E 004°09'919.0
2018-Jul-20 22:00N 53°09' E 004°20'918.1
2018-Jul-20 21:30N 53°17' E 004°28'917.5
2018-Jul-20 21:00N 53°25' E 004°34'917.4
2018-Jul-20 20:30N 53°30' E 004°46'918.7
2018-Jul-20 20:00N 53°34' E 005°01'1020.1
2018-Jul-20 19:30N 53°38' E 005°16'1121.6
2018-Jul-20 19:00N 53°41' E 005°34'1121.5
2018-Jul-20 18:30N 53°44' E 005°51'1121.3
2018-Jul-20 18:00N 53°47' E 006°08'1121.0
2018-Jul-20 17:30N 53°50' E 006°25'1020.6
2018-Jul-20 17:00N 53°53' E 006°42'1020.2
2018-Jul-20 16:30N 53°55' E 006°59'1019.8
2018-Jul-20 15:59N 53°57' E 007°16'919.4
2018-Jul-20 15:30N 53°59' E 007°32'816.3
2018-Jul-20 15:00N 53°55' E 007°43'813.3
2018-Jul-20 14:26N 53°52' E 007°55'614.2
2018-Jul-20 14:00N 53°50' E 008°05'714.6
2018-Jul-20 13:30N 53°44' E 008°13'714.7
2018-Jul-20 13:00N 53°40' E 008°23'712.9
2018-Jul-20 12:30N 53°35' E 008°31'2 4.0
2018-Jul-20 11:58N 53°34' E 008°33'0 0.0
2018-Jul-20 11:30N 53°34' E 008°33'0 0.0
2018-Jul-20 11:00N 53°34' E 008°33'0 0.0
2018-Jul-20 10:30N 53°34' E 008°33'0 0.0
2018-Jul-20 10:00N 53°34' E 008°33'0 0.0
2018-Jul-20 09:30N 53°34' E 008°33'0 0.0
2018-Jul-20 09:00N 53°34' E 008°33'0 0.0
2018-Jul-20 08:28N 53°34' E 008°33'0 0.0
2018-Jul-20 07:58N 53°34' E 008°33'0 0.0
2018-Jul-20 07:28N 53°34' E 008°33'0 0.0
2018-Jul-20 06:58N 53°34' E 008°33'0 0.0
2018-Jul-20 06:28N 53°34' E 008°33'0 0.0
2018-Jul-20 05:58N 53°34' E 008°33'0 0.0
2018-Jul-20 05:29N 53°34' E 008°33'0 0.4
2018-Jul-20 05:01N 53°33' E 008°33'3 5.7
2018-Jul-20 04:30N 53°36' E 008°31'612.8
2018-Jul-20 04:01N 53°40' E 008°23'713.6
2018-Jul-20 03:30N 53°44' E 008°13'815.3
2018-Jul-20 03:00N 53°50' E 008°05'714.1
2018-Jul-20 02:30N 53°52' E 007°53'4 7.7
2018-Jul-20 01:59N 53°53' E 007°46'4 8.0
2018-Jul-20 01:30N 53°55' E 007°41'4 8.6
2018-Jul-20 01:00N 53°58' E 007°37'4 8.4
2018-Jul-20 00:30N 54°02' E 007°34'510.7
2018-Jul-20 00:01N 54°07' E 007°29'510.0
2018-Jul-19 23:30N 54°11' E 007°25'5 9.9
2018-Jul-19 22:58N 54°16' E 007°22'510.8
2018-Jul-19 22:29N 54°21' E 007°18'510.6
2018-Jul-19 21:59N 54°26' E 007°15'510.5
2018-Jul-19 21:30N 54°31' E 007°12'710.3
2018-Jul-19 20:50N 54°37' E 007°07'810.1
2018-Jul-19 20:04N 54°44' E 007°03'110.2
2018-Jul-19 19:59N 54°45' E 007°02'22910.2
2018-Jul-18 21:24N 58°26' E 005°10'410.7
2018-Jul-18 21:00N 58°30' E 005°12'510.6
2018-Jul-18 20:30N 58°35' E 005°15'510.5
2018-Jul-18 20:01N 58°40' E 005°17'510.4
2018-Jul-18 19:30N 58°45' E 005°19'5 9.6
2018-Jul-18 19:01N 58°50' E 005°22'510.2
2018-Jul-18 18:30N 58°52' E 005°31'510.6
2018-Jul-18 18:01N 58°57' E 005°33'611.3
2018-Jul-18 17:31N 59°03' E 005°34'510.6
2018-Jul-18 17:01N 58°60' E 005°42'1 2.6
2018-Jul-18 16:28N 58°59' E 005°44'0 0.0
2018-Jul-18 15:58N 58°59' E 005°44'0 0.0
2018-Jul-18 15:28N 58°59' E 005°44'0 0.0
2018-Jul-18 14:58N 58°59' E 005°44'0 0.0
2018-Jul-18 14:28N 58°59' E 005°44'0 0.0
2018-Jul-18 13:28N 58°59' E 005°44'0 0.0
2018-Jul-18 12:58N 58°59' E 005°44'0 0.0
2018-Jul-18 12:28N 58°59' E 005°44'0 0.0
2018-Jul-18 11:58N 58°59' E 005°44'0 0.0
2018-Jul-18 11:28N 58°59' E 005°44'0 0.0
2018-Jul-18 10:28N 58°59' E 005°44'0 0.0
2018-Jul-18 09:58N 58°59' E 005°44'0 0.0
2018-Jul-18 09:28N 58°59' E 005°44'0 0.0
2018-Jul-18 08:58N 58°59' E 005°44'0 0.0
2018-Jul-18 08:28N 58°59' E 005°44'0 0.0
2018-Jul-18 07:58N 58°59' E 005°44'0 0.0
2018-Jul-18 07:28N 58°59' E 005°44'0 0.0
2018-Jul-18 06:58N 58°59' E 005°44'0 0.0
2018-Jul-18 06:29N 58°59' E 005°44'1 1.9
2018-Jul-18 06:00N 58°59' E 005°43'611.7
2018-Jul-18 05:30N 59°03' E 005°34'714.2
2018-Jul-18 05:00N 59°06' E 005°22'918.2
2018-Jul-18 04:30N 59°06' E 005°04'8519.4
2018-Jul-18 00:09N 60°29' E 004°24'318.4
2018-Jul-18 00:00N 60°31' E 004°24'918.2
2018-Jul-17 23:30N 60°40' E 004°21'918.1
2018-Jul-17 23:00N 60°49' E 004°18'918.0
2018-Jul-17 22:30N 60°58' E 004°18'918.2
2018-Jul-17 22:00N 61°07' E 004°18'918.2
2018-Jul-17 21:30N 61°16' E 004°19'918.2
2018-Jul-17 21:00N 61°25' E 004°21'918.1
2018-Jul-17 20:30N 61°34' E 004°22'917.6
2018-Jul-17 20:00N 61°43' E 004°27'918.3
2018-Jul-17 19:30N 61°51' E 004°37'918.3
2018-Jul-17 19:00N 61°58' E 004°48'917.5
2018-Jul-17 18:30N 61°55' E 005°05'917.3
2018-Jul-17 18:00N 61°55' E 005°24'918.2
2018-Jul-17 17:30N 61°53' E 005°43'817.1
2018-Jul-17 17:01N 61°52' E 006°00'918.2
2018-Jul-17 16:29N 61°51' E 006°20'6 0.5
2018-Jul-17 04:29N 61°50' E 006°33'612.6
2018-Jul-17 04:00N 61°51' E 006°20'713.4
2018-Jul-17 03:30N 61°51' E 006°06'713.7
2018-Jul-17 02:59N 61°51' E 005°51'613.1
2018-Jul-17 02:30N 61°54' E 005°39'713.5
2018-Jul-17 02:00N 61°55' E 005°25'713.4
2018-Jul-17 01:30N 61°54' E 005°11'713.2
2018-Jul-17 01:00N 61°57' E 004°58'713.5
2018-Jul-17 00:29N 62°01' E 004°47'1212.7
2018-Jul-16 23:30N 62°13' E 004°51'714.1
2018-Jul-16 23:00N 62°19' E 004°59'714.3
2018-Jul-16 22:30N 62°25' E 005°08'713.4
2018-Jul-16 22:00N 62°29' E 005°19'714.0
2018-Jul-16 21:30N 62°30' E 005°34'713.6
2018-Jul-16 21:00N 62°29' E 005°49'613.0
2018-Jul-16 20:30N 62°27' E 006°02'4 8.5
2018-Jul-16 20:00N 62°30' E 006°09'611.4
2018-Jul-16 19:30N 62°36' E 006°08'3 6.0
2018-Jul-16 19:00N 62°38' E 006°13'713.6
2018-Jul-16 18:30N 62°38' E 006°27'714.3
2018-Jul-16 18:00N 62°39' E 006°42'714.0
2018-Jul-16 17:30N 62°42' E 006°57'713.0
2018-Jul-16 17:00N 62°39' E 007°10'6 0.4
2018-Jul-16 03:19N 62°37' E 007°21'514.0
2018-Jul-16 03:00N 62°39' E 007°12'714.0
2018-Jul-16 02:30N 62°42' E 006°59'713.4
2018-Jul-16 02:00N 62°49' E 006°58'612.6
2018-Jul-16 01:30N 62°54' E 006°51'713.9
2018-Jul-16 00:59N 62°59' E 006°39'612.3
2018-Jul-16 00:30N 62°59' E 006°26'713.7
2018-Jul-15 23:59N 62°55' E 006°13'713.7
2018-Jul-15 23:30N 62°51' E 006°02'713.7
2018-Jul-15 23:00N 62°46' E 005°51'713.3
2018-Jul-15 22:30N 62°41' E 005°42'713.5
2018-Jul-15 22:00N 62°34' E 005°42'612.5
2018-Jul-15 21:30N 62°29' E 005°50'611.5
2018-Jul-15 21:00N 62°26' E 006°01'613.1
2018-Jul-15 20:30N 62°23' E 006°14'917.9
2018-Jul-15 19:59N 62°26' E 006°33'817.4
2018-Jul-15 19:30N 62°27' E 006°51'714.1
2018-Jul-15 19:00N 62°20' E 006°57'713.6
2018-Jul-15 18:30N 62°14' E 007°02'713.2
2018-Jul-15 18:00N 62°07' E 006°57'510.1
2018-Jul-15 17:30N 62°07' E 007°07'2 4.8
2018-Jul-15 17:00N 62°06' E 007°12'0 0.0
2018-Jul-15 16:29N 62°06' E 007°12'0 0.0
2018-Jul-15 16:00N 62°06' E 007°12'0 0.0
2018-Jul-15 15:30N 62°06' E 007°12'0 0.0
2018-Jul-15 15:00N 62°06' E 007°12'0 0.0
2018-Jul-15 14:29N 62°06' E 007°12'0 0.0
2018-Jul-15 14:00N 62°06' E 007°12'0 0.0
2018-Jul-15 13:30N 62°06' E 007°12'0 0.0
2018-Jul-15 12:58N 62°06' E 007°12'0 0.0
2018-Jul-15 12:30N 62°06' E 007°12'0 0.0
2018-Jul-15 12:00N 62°06' E 007°12'0 0.0
2018-Jul-15 11:30N 62°06' E 007°12'0 0.0
2018-Jul-15 11:00N 62°06' E 007°12'0 0.0
2018-Jul-15 10:30N 62°06' E 007°12'0 0.0
2018-Jul-15 10:00N 62°06' E 007°12'0 0.0
2018-Jul-15 09:30N 62°06' E 007°12'0 0.0
2018-Jul-15 09:00N 62°06' E 007°12'0 0.0
2018-Jul-15 08:30N 62°06' E 007°12'2 4.3
2018-Jul-15 08:01N 62°07' E 007°08'6 2.0
2018-Jul-15 05:01N 62°07' E 006°55'012.0
2018-Jul-15 05:00N 62°07' E 006°56'713.3
2018-Jul-15 04:30N 62°13' E 007°01'713.2
2018-Jul-15 04:00N 62°19' E 006°58'713.3
2018-Jul-15 03:30N 62°26' E 006°54'713.6
2018-Jul-15 03:00N 62°27' E 006°40'714.0
2018-Jul-15 02:30N 62°25' E 006°26'714.0
2018-Jul-15 02:00N 62°23' E 006°11'612.9
2018-Jul-15 01:30N 62°27' E 005°59'510.2
2018-Jul-15 01:00N 62°29' E 005°49'612.9
2018-Jul-15 00:30N 62°30' E 005°36'612.9
2018-Jul-15 00:00N 62°31' E 005°22'713.1
2018-Jul-14 23:29N 62°26' E 005°11'815.6
2018-Jul-14 23:00N 62°20' E 005°01'917.9
2018-Jul-14 22:30N 62°13' E 004°51'918.2
2018-Jul-14 22:00N 62°04' E 004°43'918.2
2018-Jul-14 21:30N 61°56' E 004°35'918.5
2018-Jul-14 21:00N 61°47' E 004°28'918.5
2018-Jul-14 20:29N 61°38' E 004°22'918.7
2018-Jul-14 19:59N 61°29' E 004°21'918.7
2018-Jul-14 19:30N 61°20' E 004°20'918.6
2018-Jul-14 19:00N 61°11' E 004°19'918.6
2018-Jul-14 18:30N 61°01' E 004°19'1018.6
2018-Jul-14 17:59N 60°52' E 004°25'817.2
2018-Jul-14 17:30N 60°46' E 004°36'713.5
2018-Jul-14 17:01N 60°42' E 004°48'918.1
2018-Jul-14 16:30N 60°34' E 004°55'917.7
2018-Jul-14 16:00N 60°26' E 005°03'511.0
2018-Jul-14 15:30N 60°24' E 005°13'3 6.3
2018-Jul-14 15:00N 60°24' E 005°19'0 0.0
2018-Jul-14 14:30N 60°24' E 005°19'0 0.0
2018-Jul-14 13:30N 60°24' E 005°19'0 0.0
2018-Jul-14 13:00N 60°24' E 005°19'0 0.0
2018-Jul-14 12:30N 60°24' E 005°19'0 0.0
2018-Jul-14 11:59N 60°24' E 005°19'0 0.0
2018-Jul-14 11:29N 60°24' E 005°19'0 0.0
2018-Jul-14 10:59N 60°24' E 005°19'0 0.0
2018-Jul-14 10:29N 60°24' E 005°19'0 0.0
2018-Jul-14 09:59N 60°24' E 005°19'0 0.0
2018-Jul-14 09:29N 60°24' E 005°19'0 0.0
2018-Jul-14 08:59N 60°24' E 005°19'0 0.0
2018-Jul-14 08:26N 60°24' E 005°19'0 0.0
2018-Jul-14 07:59N 60°24' E 005°19'0 0.0
2018-Jul-14 07:28N 60°24' E 005°19'0 0.0
2018-Jul-14 06:58N 60°24' E 005°19'0 0.0
2018-Jul-14 06:28N 60°24' E 005°19'0 0.0
2018-Jul-14 05:58N 60°24' E 005°19'0 0.0
2018-Jul-14 05:30N 60°24' E 005°19'4 6.8
2018-Jul-14 04:59N 60°23' E 005°12'511.5
2018-Jul-14 04:30N 60°26' E 005°02'714.2
2018-Jul-14 04:00N 60°32' E 004°56'714.1
2018-Jul-14 03:30N 60°39' E 004°51'713.4
2018-Jul-14 03:00N 60°44' E 004°43'5 9.4
2018-Jul-14 02:30N 60°42' E 004°35'713.6
2018-Jul-14 02:00N 60°36' E 004°28'13514.7
2018-Jul-13 16:45N 58°20' E 004°27'817.7
2018-Jul-13 16:20N 58°13' E 004°30'27817.2
2018-Jul-13 00:07N 53°35' E 004°48'317.1
2018-Jul-12 23:57N 53°32' E 004°46'916.9
2018-Jul-12 23:25N 53°24' E 004°41'716.7
2018-Jul-12 23:00N 53°18' E 004°36'816.4
2018-Jul-12 22:30N 53°10' E 004°30'816.2
2018-Jul-12 22:00N 53°03' E 004°23'816.2
2018-Jul-12 21:30N 52°56' E 004°16'816.2
2018-Jul-12 21:00N 52°49' E 004°11'815.8
2018-Jul-12 20:30N 52°41' E 004°06'815.8
2018-Jul-12 20:00N 52°33' E 004°07'816.4
2018-Jul-12 19:30N 52°30' E 004°20'612.2
2018-Jul-12 19:00N 52°29' E 004°30'3 6.9
2018-Jul-12 18:30N 52°28' E 004°35'1 1.9
2018-Jul-12 18:00N 52°28' E 004°36'2 4.0
2018-Jul-12 17:30N 52°28' E 004°40'4 7.6
2018-Jul-12 17:00N 52°26' E 004°45'4 7.5
2018-Jul-12 16:30N 52°25' E 004°51'3 6.2
2018-Jul-12 16:00N 52°23' E 004°55'0 0.6
2018-Jul-12 15:30N 52°23' E 004°55'0 0.2
2018-Jul-12 14:58N 52°23' E 004°55'0 0.0
2018-Jul-12 14:28N 52°23' E 004°55'0 0.0
2018-Jul-12 13:58N 52°23' E 004°55'0 0.0
2018-Jul-12 13:28N 52°23' E 004°55'0 0.0
2018-Jul-12 12:58N 52°23' E 004°55'0 0.0
2018-Jul-12 12:28N 52°23' E 004°55'0 0.0
2018-Jul-12 11:58N 52°23' E 004°55'0 0.0
2018-Jul-12 11:28N 52°23' E 004°55'0 0.0
2018-Jul-12 10:58N 52°23' E 004°55'0 0.0
2018-Jul-12 10:28N 52°23' E 004°55'0 0.0
2018-Jul-12 09:58N 52°23' E 004°55'0 0.0
2018-Jul-12 09:30N 52°23' E 004°55'0 0.0
2018-Jul-12 09:00N 52°23' E 004°55'0 0.0
2018-Jul-12 08:30N 52°23' E 004°55'0 0.0
2018-Jul-12 08:00N 52°23' E 004°55'0 0.0
2018-Jul-12 07:30N 52°23' E 004°55'0 0.0
2018-Jul-12 07:00N 52°23' E 004°55'0 0.0
2018-Jul-12 06:28N 52°23' E 004°55'0 0.0
2018-Jul-12 06:00N 52°23' E 004°55'0 0.0
2018-Jul-12 05:30N 52°23' E 004°55'0 0.0
2018-Jul-12 04:58N 52°23' E 004°55'0 0.1
2018-Jul-12 04:31N 52°23' E 004°55'2 4.4
2018-Jul-12 04:00N 52°24' E 004°53'4 7.1
2018-Jul-12 03:31N 52°26' E 004°47'4 7.5
2018-Jul-12 03:01N 52°27' E 004°41'3 6.1
2018-Jul-12 02:30N 52°28' E 004°37'0 0.3
2018-Jul-12 02:00N 52°28' E 004°37'2 5.0
2018-Jul-12 01:31N 52°28' E 004°33'  

Dump ship's entire track history